Moscow, OH

07:09 EST le 24 novembre 2014 (GMT -0500)
Cincinnati Municipal-Lunken | Change Station
CLOSE
Current Station
Aéroport
Location: Cincinnati,
Altitude: 482 ft
Stations météo à proximité
Avis météorologiques actifs: Wind Advisory

Alt. 482 ft 39.10 °N, 84.42 °W | Updated 16 minutes ago

Nuageux
Nuageux
60 ° F
Paraît 60 ° F
N
22
Vent Variable Vent de Sud
Gusts 30 mph

Aujourd'hui
Haut(e) -- | Bas -- ° F
--% Risque de précip.
Hier
Haut(e) -- | Bas -- ° F
Precip. -- pouce
7:29 AM 5:17 PM
Lune montante, 5% visible
Pression 29.32 pouce
Visibilité 10.0 Miles terrestres
Nuages Nuageux 3000 ft
Nuageux 3600 ft
Point de rosée 54 ° F
Humidité 80%
Précipitations 0.03 pouce
Profondeur de la couche neigeuse Non disponible.
UV 0 sur 12
Pollen .10 sur 12
Qualité de l'air Non disponible.
Flu Activity Non disponible.
METAR KLUK 241153Z 18019G26KT 10SM BKN030 BKN036 16/12 A2932 RMK AO2 PK WND 20027/1141 SLP927 60001 70093 T01560122 10161 20144 58010 $

More Conditions Fewer Conditions

Pression 29.32 pouce
Visibilité 10.0 Miles terrestres
Nuages Nuageux 3000 ft
Nuageux 3600 ft
Point de rosée 54 ° F
Humidité 80%
Précipitations 0.03 pouce
Profondeur de la couche neigeuse Non disponible.
UV 0 sur 12
Pollen .10 sur 12
Qualité de l'air Non disponible.
Flu Activity Non disponible.
METAR KLUK 241153Z 18019G26KT 10SM BKN030 BKN036 16/12 A2932 RMK AO2 PK WND 20027/1141 SLP927 60001 70093 T01560122 10161 20144 58010 $

More Conditions Fewer Conditions

10-Day Weather Forecast

Almanac

Astronomie

Nov. 24, 2014 Lever Coucher
Temps réel
Crépuscule civil
Crépuscule nautique
Crépuscule astronomique
Lune
Durée de lumière visible
Longueur du jour
Tomorrow will be .
, % of the Moon is Illuminated

Extrêmes aujourd'hui

State Highs State Lows

Community

WunderPhotos

Upload Photos

1,773,313 Photos téléchargées !

WunderBlogs® & News

Nearby

Qualité de l'air

  Qualité de l'air Indice de la qualité de l'air Polluant
Not available.

Épaisseur de neige

Station Depth Altitude

Activité sismique

Ville Distance Mag. Time & Date
Minimum magnitude displayed is 2.5.

Températures des eaux côtières

Lieu Température

Stations météo à proximité